sensor_id;sensor_type;location;lat;lon;timestamp;P1;durP1;ratioP1;P2;durP2;ratioP2
35324;SDS011;35135;47.510;19.036;2023-03-01T00:01:50;5.88;;;5.28;;
35324;SDS011;35135;47.510;19.036;2023-03-01T00:04:16;6.40;;;5.50;;
35324;SDS011;35135;47.510;19.036;2023-03-01T00:06:42;7.22;;;5.35;;
35324;SDS011;35135;47.510;19.036;2023-03-01T00:09:11;7.25;;;5.60;;
35324;SDS011;35135;47.510;19.036;2023-03-01T00:11:38;5.65;;;5.13;;
35324;SDS011;35135;47.510;19.036;2023-03-01T00:14:03;6.65;;;5.43;;
35324;SDS011;35135;47.510;19.036;2023-03-01T00:16:33;5.88;;;5.28;;
35324;SDS011;35135;47.510;19.036;2023-03-01T00:19:03;6.38;;;5.75;;
35324;SDS011;35135;47.510;19.036;2023-03-01T00:21:29;6.00;;;5.15;;
35324;SDS011;35135;47.510;19.036;2023-03-01T00:23:55;6.30;;;5.70;;
35324;SDS011;35135;47.510;19.036;2023-03-01T00:26:22;6.55;;;5.95;;
35324;SDS011;35135;47.510;19.036;2023-03-01T00:28:48;5.93;;;5.10;;
35324;SDS011;35135;47.510;19.036;2023-03-01T00:31:16;5.90;;;5.30;;
35324;SDS011;35135;47.510;19.036;2023-03-01T00:33:44;7.25;;;6.30;;
35324;SDS011;35135;47.510;19.036;2023-03-01T00:36:10;6.03;;;5.43;;
35324;SDS011;35135;47.510;19.036;2023-03-01T00:38:39;6.43;;;5.45;;
35324;SDS011;35135;47.510;19.036;2023-03-01T00:41:07;6.20;;;5.53;;
35324;SDS011;35135;47.510;19.036;2023-03-01T00:43:35;6.05;;;5.43;;
35324;SDS011;35135;47.510;19.036;2023-03-01T00:46:05;6.20;;;5.60;;
35324;SDS011;35135;47.510;19.036;2023-03-01T00:48:33;5.93;;;5.15;;
35324;SDS011;35135;47.510;19.036;2023-03-01T00:53:32;7.45;;;5.47;;
35324;SDS011;35135;47.510;19.036;2023-03-01T00:55:59;6.35;;;5.75;;
35324;SDS011;35135;47.510;19.036;2023-03-01T00:58:24;7.05;;;5.90;;
35324;SDS011;35135;47.510;19.036;2023-03-01T01:00:50;5.78;;;5.28;;
35324;SDS011;35135;47.510;19.036;2023-03-01T01:03:17;6.18;;;5.57;;
35324;SDS011;35135;47.510;19.036;2023-03-01T01:05:43;7.10;;;6.40;;
35324;SDS011;35135;47.510;19.036;2023-03-01T01:08:09;6.40;;;5.75;;
35324;SDS011;35135;47.510;19.036;2023-03-01T01:10:34;6.63;;;5.95;;
35324;SDS011;35135;47.510;19.036;2023-03-01T01:13:00;6.43;;;5.80;;
35324;SDS011;35135;47.510;19.036;2023-03-01T01:15:26;6.20;;;5.60;;
35324;SDS011;35135;47.510;19.036;2023-03-01T01:17:52;6.70;;;6.03;;
35324;SDS011;35135;47.510;19.036;2023-03-01T01:20:18;7.80;;;5.97;;
35324;SDS011;35135;47.510;19.036;2023-03-01T01:22:43;6.50;;;5.88;;
35324;SDS011;35135;47.510;19.036;2023-03-01T01:25:09;6.38;;;5.60;;
35324;SDS011;35135;47.510;19.036;2023-03-01T01:27:35;7.15;;;6.45;;
35324;SDS011;35135;47.510;19.036;2023-03-01T01:30:01;6.53;;;5.93;;
35324;SDS011;35135;47.510;19.036;2023-03-01T01:32:27;7.53;;;6.82;;
35324;SDS011;35135;47.510;19.036;2023-03-01T01:34:53;6.22;;;5.63;;
35324;SDS011;35135;47.510;19.036;2023-03-01T01:37:19;6.50;;;5.78;;
35324;SDS011;35135;47.510;19.036;2023-03-01T01:39:44;6.68;;;6.03;;
35324;SDS011;35135;47.510;19.036;2023-03-01T01:42:17;6.40;;;5.80;;
35324;SDS011;35135;47.510;19.036;2023-03-01T01:44:45;7.30;;;5.95;;
35324;SDS011;35135;47.510;19.036;2023-03-01T01:47:12;6.25;;;5.65;;
35324;SDS011;35135;47.510;19.036;2023-03-01T01:52:17;6.43;;;5.82;;
35324;SDS011;35135;47.510;19.036;2023-03-01T01:57:29;6.57;;;5.90;;
35324;SDS011;35135;47.510;19.036;2023-03-01T02:00:00;6.45;;;5.85;;
35324;SDS011;35135;47.510;19.036;2023-03-01T02:02:48;6.38;;;5.78;;
35324;SDS011;35135;47.510;19.036;2023-03-01T02:07:57;6.57;;;5.97;;
35324;SDS011;35135;47.510;19.036;2023-03-01T02:10:24;6.35;;;5.65;;
35324;SDS011;35135;47.510;19.036;2023-03-01T02:12:51;6.25;;;5.65;;
35324;SDS011;35135;47.510;19.036;2023-03-01T02:15:17;6.13;;;5.40;;
35324;SDS011;35135;47.510;19.036;2023-03-01T02:17:43;6.20;;;5.60;;
35324;SDS011;35135;47.510;19.036;2023-03-01T02:22:44;6.70;;;6.10;;
35324;SDS011;35135;47.510;19.036;2023-03-01T02:27:49;6.00;;;5.40;;
35324;SDS011;35135;47.510;19.036;2023-03-01T02:30:17;6.22;;;5.57;;
35324;SDS011;35135;47.510;19.036;2023-03-01T02:32:44;5.88;;;5.22;;
35324;SDS011;35135;47.510;19.036;2023-03-01T02:35:11;6.07;;;5.45;;
35324;SDS011;35135;47.510;19.036;2023-03-01T02:37:39;6.68;;;6.07;;
35324;SDS011;35135;47.510;19.036;2023-03-01T02:40:08;5.57;;;4.97;;
35324;SDS011;35135;47.510;19.036;2023-03-01T02:42:40;6.63;;;5.95;;
35324;SDS011;35135;47.510;19.036;2023-03-01T02:45:18;5.90;;;5.30;;
35324;SDS011;35135;47.510;19.036;2023-03-01T02:47:44;6.30;;;5.70;;
35324;SDS011;35135;47.510;19.036;2023-03-01T02:56:23;6.10;;;5.50;;
35324;SDS011;35135;47.510;19.036;2023-03-01T02:58:49;6.22;;;5.20;;
35324;SDS011;35135;47.510;19.036;2023-03-01T03:01:17;6.13;;;5.53;;
35324;SDS011;35135;47.510;19.036;2023-03-01T03:03:44;6.07;;;5.47;;
35324;SDS011;35135;47.510;19.036;2023-03-01T03:06:09;5.88;;;5.30;;
35324;SDS011;35135;47.510;19.036;2023-03-01T03:08:35;5.93;;;5.38;;
35324;SDS011;35135;47.510;19.036;2023-03-01T03:11:02;6.20;;;5.50;;
35324;SDS011;35135;47.510;19.036;2023-03-01T03:13:27;5.80;;;5.30;;
35324;SDS011;35135;47.510;19.036;2023-03-01T03:15:56;5.97;;;5.03;;
35324;SDS011;35135;47.510;19.036;2023-03-01T03:18:22;6.45;;;5.75;;
35324;SDS011;35135;47.510;19.036;2023-03-01T03:20:51;6.88;;;5.53;;
35324;SDS011;35135;47.510;19.036;2023-03-01T03:23:18;6.45;;;5.82;;
35324;SDS011;35135;47.510;19.036;2023-03-01T03:25:47;6.13;;;5.53;;
35324;SDS011;35135;47.510;19.036;2023-03-01T03:28:16;6.18;;;5.57;;
35324;SDS011;35135;47.510;19.036;2023-03-01T03:30:42;5.63;;;5.10;;
35324;SDS011;35135;47.510;19.036;2023-03-01T03:33:08;6.25;;;5.65;;
35324;SDS011;35135;47.510;19.036;2023-03-01T03:35:40;5.70;;;5.15;;
35324;SDS011;35135;47.510;19.036;2023-03-01T03:38:08;5.38;;;4.88;;
35324;SDS011;35135;47.510;19.036;2023-03-01T03:40:42;6.22;;;5.63;;
35324;SDS011;35135;47.510;19.036;2023-03-01T03:43:11;5.75;;;5.25;;
35324;SDS011;35135;47.510;19.036;2023-03-01T03:45:41;6.20;;;5.60;;
35324;SDS011;35135;47.510;19.036;2023-03-01T03:48:09;6.15;;;5.55;;
35324;SDS011;35135;47.510;19.036;2023-03-01T03:50:36;5.97;;;5.38;;
35324;SDS011;35135;47.510;19.036;2023-03-01T03:53:04;5.60;;;5.10;;
35324;SDS011;35135;47.510;19.036;2023-03-01T03:55:37;5.97;;;4.95;;
35324;SDS011;35135;47.510;19.036;2023-03-01T03:58:04;5.55;;;5.05;;
35324;SDS011;35135;47.510;19.036;2023-03-01T04:00:32;5.78;;;5.18;;
35324;SDS011;35135;47.510;19.036;2023-03-01T04:02:59;6.15;;;5.63;;
35324;SDS011;35135;47.510;19.036;2023-03-01T04:05:25;5.72;;;5.22;;
35324;SDS011;35135;47.510;19.036;2023-03-01T04:07:52;5.75;;;5.15;;
35324;SDS011;35135;47.510;19.036;2023-03-01T04:10:26;5.50;;;5.00;;
35324;SDS011;35135;47.510;19.036;2023-03-01T04:12:53;6.47;;;5.88;;
35324;SDS011;35135;47.510;19.036;2023-03-01T04:15:21;5.65;;;5.13;;
35324;SDS011;35135;47.510;19.036;2023-03-01T04:17:49;5.88;;;5.28;;
35324;SDS011;35135;47.510;19.036;2023-03-01T04:20:18;5.70;;;5.20;;
35324;SDS011;35135;47.510;19.036;2023-03-01T04:23:12;5.75;;;5.00;;
35324;SDS011;35135;47.510;19.036;2023-03-01T04:28:18;5.47;;;4.95;;
35324;SDS011;35135;47.510;19.036;2023-03-01T04:31:17;5.22;;;4.72;;
35324;SDS011;35135;47.510;19.036;2023-03-01T04:33:46;5.70;;;5.10;;
35324;SDS011;35135;47.510;19.036;2023-03-01T04:36:16;5.50;;;5.00;;
35324;SDS011;35135;47.510;19.036;2023-03-01T04:38:43;5.38;;;4.88;;
35324;SDS011;35135;47.510;19.036;2023-03-01T04:41:12;5.18;;;4.68;;
35324;SDS011;35135;47.510;19.036;2023-03-01T04:43:39;5.40;;;4.90;;
35324;SDS011;35135;47.510;19.036;2023-03-01T04:46:06;6.63;;;5.10;;
35324;SDS011;35135;47.510;19.036;2023-03-01T04:48:34;5.55;;;5.05;;
35324;SDS011;35135;47.510;19.036;2023-03-01T04:51:01;5.05;;;4.65;;
35324;SDS011;35135;47.510;19.036;2023-03-01T04:53:27;5.63;;;5.13;;
35324;SDS011;35135;47.510;19.036;2023-03-01T04:55:54;5.53;;;4.95;;
35324;SDS011;35135;47.510;19.036;2023-03-01T04:58:25;5.72;;;5.18;;
35324;SDS011;35135;47.510;19.036;2023-03-01T05:00:52;6.03;;;5.43;;
35324;SDS011;35135;47.510;19.036;2023-03-01T05:03:18;5.78;;;5.18;;
35324;SDS011;35135;47.510;19.036;2023-03-01T05:05:45;5.55;;;4.97;;
35324;SDS011;35135;47.510;19.036;2023-03-01T05:08:12;5.88;;;5.28;;
35324;SDS011;35135;47.510;19.036;2023-03-01T05:10:43;5.75;;;4.88;;
35324;SDS011;35135;47.510;19.036;2023-03-01T05:13:16;5.57;;;4.97;;
35324;SDS011;35135;47.510;19.036;2023-03-01T05:15:56;5.07;;;4.57;;
35324;SDS011;35135;47.510;19.036;2023-03-01T05:18:23;5.28;;;4.78;;
35324;SDS011;35135;47.510;19.036;2023-03-01T05:20:53;4.78;;;4.28;;
35324;SDS011;35135;47.510;19.036;2023-03-01T05:23:21;5.43;;;4.93;;
35324;SDS011;35135;47.510;19.036;2023-03-01T05:25:48;5.53;;;5.03;;
35324;SDS011;35135;47.510;19.036;2023-03-01T05:28:15;5.35;;;4.85;;
35324;SDS011;35135;47.510;19.036;2023-03-01T05:30:41;5.20;;;4.70;;
35324;SDS011;35135;47.510;19.036;2023-03-01T05:33:07;5.15;;;4.70;;
35324;SDS011;35135;47.510;19.036;2023-03-01T05:35:41;5.53;;;5.03;;
35324;SDS011;35135;47.510;19.036;2023-03-01T05:38:08;5.25;;;4.75;;
35324;SDS011;35135;47.510;19.036;2023-03-01T05:40:38;5.22;;;4.72;;
35324;SDS011;35135;47.510;19.036;2023-03-01T05:43:04;5.13;;;4.63;;
35324;SDS011;35135;47.510;19.036;2023-03-01T05:45:30;5.13;;;4.55;;
35324;SDS011;35135;47.510;19.036;2023-03-01T05:47:57;4.55;;;4.05;;
35324;SDS011;35135;47.510;19.036;2023-03-01T05:50:24;5.13;;;4.63;;
35324;SDS011;35135;47.510;19.036;2023-03-01T05:52:56;4.75;;;4.25;;
35324;SDS011;35135;47.510;19.036;2023-03-01T05:55:23;4.87;;;4.13;;
35324;SDS011;35135;47.510;19.036;2023-03-01T05:57:49;5.03;;;4.53;;
35324;SDS011;35135;47.510;19.036;2023-03-01T06:00:16;4.97;;;4.45;;
35324;SDS011;35135;47.510;19.036;2023-03-01T06:02:44;5.25;;;4.60;;
35324;SDS011;35135;47.510;19.036;2023-03-01T06:05:13;5.55;;;4.32;;
35324;SDS011;35135;47.510;19.036;2023-03-01T06:07:39;5.50;;;5.00;;
35324;SDS011;35135;47.510;19.036;2023-03-01T06:10:06;4.93;;;4.43;;
35324;SDS011;35135;47.510;19.036;2023-03-01T06:12:36;4.53;;;4.10;;
35324;SDS011;35135;47.510;19.036;2023-03-01T06:15:03;5.30;;;4.80;;
35324;SDS011;35135;47.510;19.036;2023-03-01T06:17:31;8.18;;;5.07;;
35324;SDS011;35135;47.510;19.036;2023-03-01T06:20:02;7.85;;;4.55;;
35324;SDS011;35135;47.510;19.036;2023-03-01T06:22:39;8.20;;;4.75;;
35324;SDS011;35135;47.510;19.036;2023-03-01T06:25:05;6.55;;;4.60;;
35324;SDS011;35135;47.510;19.036;2023-03-01T06:27:31;5.93;;;4.60;;
35324;SDS011;35135;47.510;19.036;2023-03-01T06:29:57;7.20;;;4.72;;
35324;SDS011;35135;47.510;19.036;2023-03-01T06:32:27;8.98;;;5.32;;
35324;SDS011;35135;47.510;19.036;2023-03-01T06:34:53;9.02;;;5.47;;
35324;SDS011;35135;47.510;19.036;2023-03-01T06:37:21;7.15;;;4.82;;
35324;SDS011;35135;47.510;19.036;2023-03-01T06:39:51;6.38;;;4.70;;
35324;SDS011;35135;47.510;19.036;2023-03-01T06:42:19;11.05;;;5.22;;
35324;SDS011;35135;47.510;19.036;2023-03-01T06:44:56;8.82;;;5.25;;
35324;SDS011;35135;47.510;19.036;2023-03-01T06:47:22;9.00;;;5.20;;
35324;SDS011;35135;47.510;19.036;2023-03-01T06:49:47;15.75;;;5.20;;
35324;SDS011;35135;47.510;19.036;2023-03-01T06:52:13;9.60;;;5.47;;
35324;SDS011;35135;47.510;19.036;2023-03-01T06:54:39;11.75;;;4.95;;
35324;SDS011;35135;47.510;19.036;2023-03-01T06:57:04;8.23;;;5.10;;
35324;SDS011;35135;47.510;19.036;2023-03-01T06:59:30;5.53;;;4.47;;
35324;SDS011;35135;47.510;19.036;2023-03-01T07:01:56;7.13;;;4.28;;
35324;SDS011;35135;47.510;19.036;2023-03-01T07:04:22;6.65;;;5.22;;
35324;SDS011;35135;47.510;19.036;2023-03-01T07:06:47;10.73;;;5.20;;
35324;SDS011;35135;47.510;19.036;2023-03-01T07:09:20;6.82;;;4.68;;
35324;SDS011;35135;47.510;19.036;2023-03-01T07:11:49;8.13;;;4.93;;
35324;SDS011;35135;47.510;19.036;2023-03-01T07:14:15;5.47;;;4.53;;
35324;SDS011;35135;47.510;19.036;2023-03-01T07:16:41;7.10;;;5.18;;
35324;SDS011;35135;47.510;19.036;2023-03-01T07:19:07;8.35;;;4.88;;
35324;SDS011;35135;47.510;19.036;2023-03-01T07:21:32;9.65;;;4.93;;
35324;SDS011;35135;47.510;19.036;2023-03-01T07:23:58;6.05;;;4.32;;
35324;SDS011;35135;47.510;19.036;2023-03-01T07:26:23;9.60;;;4.68;;
35324;SDS011;35135;47.510;19.036;2023-03-01T07:28:49;5.32;;;4.82;;
35324;SDS011;35135;47.510;19.036;2023-03-01T07:31:15;5.25;;;4.60;;
35324;SDS011;35135;47.510;19.036;2023-03-01T07:33:40;8.80;;;5.13;;
35324;SDS011;35135;47.510;19.036;2023-03-01T07:36:06;8.38;;;4.57;;
35324;SDS011;35135;47.510;19.036;2023-03-01T07:38:32;6.15;;;5.03;;
35324;SDS011;35135;47.510;19.036;2023-03-01T07:40:59;9.88;;;6.95;;
35324;SDS011;35135;47.510;19.036;2023-03-01T07:43:26;9.05;;;7.13;;
35324;SDS011;35135;47.510;19.036;2023-03-01T07:45:53;8.88;;;7.05;;
35324;SDS011;35135;47.510;19.036;2023-03-01T07:48:18;9.43;;;6.63;;
35324;SDS011;35135;47.510;19.036;2023-03-01T07:50:44;8.63;;;6.43;;
35324;SDS011;35135;47.510;19.036;2023-03-01T07:53:10;8.52;;;5.88;;
35324;SDS011;35135;47.510;19.036;2023-03-01T07:55:36;10.32;;;6.22;;
35324;SDS011;35135;47.510;19.036;2023-03-01T07:58:02;10.25;;;5.78;;
35324;SDS011;35135;47.510;19.036;2023-03-01T08:00:28;6.75;;;6.00;;
35324;SDS011;35135;47.510;19.036;2023-03-01T08:02:54;6.90;;;5.65;;
35324;SDS011;35135;47.510;19.036;2023-03-01T08:05:19;7.03;;;6.28;;
35324;SDS011;35135;47.510;19.036;2023-03-01T08:07:47;6.90;;;5.95;;
35324;SDS011;35135;47.510;19.036;2023-03-01T08:10:13;6.82;;;5.50;;
35324;SDS011;35135;47.510;19.036;2023-03-01T08:12:38;6.22;;;5.63;;
35324;SDS011;35135;47.510;19.036;2023-03-01T08:15:04;5.70;;;4.82;;
35324;SDS011;35135;47.510;19.036;2023-03-01T08:17:30;6.63;;;5.13;;
35324;SDS011;35135;47.510;19.036;2023-03-01T08:19:56;7.30;;;5.35;;
35324;SDS011;35135;47.510;19.036;2023-03-01T08:22:21;7.43;;;4.65;;
35324;SDS011;35135;47.510;19.036;2023-03-01T08:24:47;7.15;;;4.85;;
35324;SDS011;35135;47.510;19.036;2023-03-01T08:27:14;6.50;;;5.15;;
35324;SDS011;35135;47.510;19.036;2023-03-01T08:29:40;7.32;;;5.18;;
35324;SDS011;35135;47.510;19.036;2023-03-01T08:32:06;5.50;;;4.95;;
35324;SDS011;35135;47.510;19.036;2023-03-01T08:34:32;6.43;;;4.82;;
35324;SDS011;35135;47.510;19.036;2023-03-01T08:37:00;5.25;;;4.50;;
35324;SDS011;35135;47.510;19.036;2023-03-01T08:39:26;6.20;;;4.80;;
35324;SDS011;35135;47.510;19.036;2023-03-01T08:41:52;5.75;;;4.70;;
35324;SDS011;35135;47.510;19.036;2023-03-01T08:44:18;5.68;;;4.78;;
35324;SDS011;35135;47.510;19.036;2023-03-01T08:46:45;5.82;;;5.10;;
35324;SDS011;35135;47.510;19.036;2023-03-01T08:49:15;5.53;;;4.15;;
35324;SDS011;35135;47.510;19.036;2023-03-01T08:51:42;6.20;;;4.82;;
35324;SDS011;35135;47.510;19.036;2023-03-01T08:54:13;7.05;;;4.60;;
35324;SDS011;35135;47.510;19.036;2023-03-01T08:56:41;5.82;;;4.30;;
35324;SDS011;35135;47.510;19.036;2023-03-01T08:59:07;5.28;;;4.78;;
35324;SDS011;35135;47.510;19.036;2023-03-01T09:01:34;5.25;;;4.40;;
35324;SDS011;35135;47.510;19.036;2023-03-01T09:03:59;5.47;;;4.53;;
35324;SDS011;35135;47.510;19.036;2023-03-01T09:06:25;4.85;;;4.18;;
35324;SDS011;35135;47.510;19.036;2023-03-01T09:08:51;5.10;;;4.60;;
35324;SDS011;35135;47.510;19.036;2023-03-01T09:11:18;5.03;;;4.53;;
35324;SDS011;35135;47.510;19.036;2023-03-01T09:13:46;4.80;;;4.40;;
35324;SDS011;35135;47.510;19.036;2023-03-01T09:16:13;4.88;;;4.35;;
35324;SDS011;35135;47.510;19.036;2023-03-01T09:18:40;4.75;;;4.15;;
35324;SDS011;35135;47.510;19.036;2023-03-01T09:21:07;4.90;;;4.22;;
35324;SDS011;35135;47.510;19.036;2023-03-01T09:23:38;5.13;;;4.28;;
35324;SDS011;35135;47.510;19.036;2023-03-01T09:26:09;5.20;;;4.43;;
35324;SDS011;35135;47.510;19.036;2023-03-01T09:28:47;4.90;;;4.40;;
35324;SDS011;35135;47.510;19.036;2023-03-01T09:31:14;5.30;;;4.57;;
35324;SDS011;35135;47.510;19.036;2023-03-01T09:33:41;6.13;;;4.45;;
35324;SDS011;35135;47.510;19.036;2023-03-01T09:36:08;5.22;;;4.40;;
35324;SDS011;35135;47.510;19.036;2023-03-01T09:44:02;4.90;;;4.38;;
35324;SDS011;35135;47.510;19.036;2023-03-01T09:46:40;5.97;;;4.32;;
35324;SDS011;35135;47.510;19.036;2023-03-01T09:49:12;4.40;;;4.00;;
35324;SDS011;35135;47.510;19.036;2023-03-01T09:51:58;5.30;;;4.80;;
35324;SDS011;35135;47.510;19.036;2023-03-01T09:54:36;5.43;;;4.68;;
35324;SDS011;35135;47.510;19.036;2023-03-01T09:57:14;5.90;;;4.60;;
35324;SDS011;35135;47.510;19.036;2023-03-01T10:08:33;6.40;;;4.22;;
35324;SDS011;35135;47.510;19.036;2023-03-01T10:11:05;4.93;;;4.45;;
35324;SDS011;35135;47.510;19.036;2023-03-01T10:16:24;5.05;;;4.15;;
35324;SDS011;35135;47.510;19.036;2023-03-01T10:19:01;4.65;;;4.15;;
35324;SDS011;35135;47.510;19.036;2023-03-01T10:21:29;5.00;;;4.43;;
35324;SDS011;35135;47.510;19.036;2023-03-01T10:24:16;5.03;;;4.50;;
35324;SDS011;35135;47.510;19.036;2023-03-01T10:26:55;5.10;;;4.60;;
35324;SDS011;35135;47.510;19.036;2023-03-01T10:29:28;4.75;;;4.30;;
35324;SDS011;35135;47.510;19.036;2023-03-01T10:31:59;5.10;;;4.60;;
35324;SDS011;35135;47.510;19.036;2023-03-01T10:34:29;5.07;;;4.57;;
35324;SDS011;35135;47.510;19.036;2023-03-01T10:37:19;4.80;;;4.30;;
35324;SDS011;35135;47.510;19.036;2023-03-01T10:39:58;5.55;;;4.78;;
35324;SDS011;35135;47.510;19.036;2023-03-01T10:42:33;5.72;;;4.88;;
35324;SDS011;35135;47.510;19.036;2023-03-01T10:47:44;4.45;;;4.05;;
35324;SDS011;35135;47.510;19.036;2023-03-01T10:50:20;4.55;;;4.15;;
35324;SDS011;35135;47.510;19.036;2023-03-01T10:53:01;4.80;;;4.32;;
35324;SDS011;35135;47.510;19.036;2023-03-01T10:55:34;4.30;;;3.90;;
35324;SDS011;35135;47.510;19.036;2023-03-01T11:00:47;4.63;;;4.13;;
35324;SDS011;35135;47.510;19.036;2023-03-01T11:06:30;4.43;;;3.97;;
35324;SDS011;35135;47.510;19.036;2023-03-01T11:08:55;4.60;;;4.20;;
35324;SDS011;35135;47.510;19.036;2023-03-01T11:11:32;5.55;;;4.32;;
35324;SDS011;35135;47.510;19.036;2023-03-01T11:14:15;5.05;;;4.28;;
35324;SDS011;35135;47.510;19.036;2023-03-01T11:16:44;4.55;;;4.07;;
35324;SDS011;35135;47.510;19.036;2023-03-01T11:24:06;4.60;;;3.83;;
35324;SDS011;35135;47.510;19.036;2023-03-01T11:26:37;5.18;;;4.18;;
35324;SDS011;35135;47.510;19.036;2023-03-01T11:29:18;4.75;;;4.07;;
35324;SDS011;35135;47.510;19.036;2023-03-01T11:31:58;4.20;;;3.80;;
35324;SDS011;35135;47.510;19.036;2023-03-01T11:35:10;4.55;;;3.83;;
35324;SDS011;35135;47.510;19.036;2023-03-01T11:37:36;4.75;;;3.88;;
35324;SDS011;35135;47.510;19.036;2023-03-01T11:50:47;4.40;;;4.00;;
35324;SDS011;35135;47.510;19.036;2023-03-01T11:53:25;5.30;;;4.07;;
35324;SDS011;35135;47.510;19.036;2023-03-01T11:59:43;4.28;;;3.85;;
35324;SDS011;35135;47.510;19.036;2023-03-01T12:07:01;4.55;;;4.00;;
35324;SDS011;35135;47.510;19.036;2023-03-01T12:12:32;4.65;;;4.20;;
35324;SDS011;35135;47.510;19.036;2023-03-01T12:20:28;4.32;;;3.85;;
35324;SDS011;35135;47.510;19.036;2023-03-01T12:34:37;4.57;;;4.10;;
35324;SDS011;35135;47.510;19.036;2023-03-01T12:51:14;4.85;;;4.35;;
35324;SDS011;35135;47.510;19.036;2023-03-01T12:53:46;4.70;;;4.20;;
35324;SDS011;35135;47.510;19.036;2023-03-01T12:56:18;4.50;;;4.10;;
35324;SDS011;35135;47.510;19.036;2023-03-01T13:01:28;4.50;;;3.90;;
35324;SDS011;35135;47.510;19.036;2023-03-01T13:11:49;4.30;;;3.90;;
35324;SDS011;35135;47.510;19.036;2023-03-01T13:14:57;4.57;;;3.92;;
35324;SDS011;35135;47.510;19.036;2023-03-01T13:17:29;4.35;;;3.70;;
35324;SDS011;35135;47.510;19.036;2023-03-01T13:20:11;4.40;;;3.90;;
35324;SDS011;35135;47.510;19.036;2023-03-01T13:22:39;4.88;;;3.78;;
35324;SDS011;35135;47.510;19.036;2023-03-01T13:25:16;4.90;;;3.80;;
35324;SDS011;35135;47.510;19.036;2023-03-01T13:27:44;5.15;;;3.90;;
35324;SDS011;35135;47.510;19.036;2023-03-01T13:35:57;4.80;;;3.67;;
35324;SDS011;35135;47.510;19.036;2023-03-01T13:46:58;5.20;;;4.00;;
35324;SDS011;35135;47.510;19.036;2023-03-01T13:49:28;4.90;;;3.90;;
35324;SDS011;35135;47.510;19.036;2023-03-01T13:52:01;12.77;;;4.13;;
35324;SDS011;35135;47.510;19.036;2023-03-01T13:54:31;6.35;;;3.95;;
35324;SDS011;35135;47.510;19.036;2023-03-01T13:56:58;6.70;;;3.72;;
35324;SDS011;35135;47.510;19.036;2023-03-01T13:59:25;5.65;;;3.88;;
35324;SDS011;35135;47.510;19.036;2023-03-01T14:01:55;9.30;;;4.07;;
35324;SDS011;35135;47.510;19.036;2023-03-01T14:06:50;6.75;;;3.72;;
35324;SDS011;35135;47.510;19.036;2023-03-01T14:19:54;8.77;;;3.80;;
35324;SDS011;35135;47.510;19.036;2023-03-01T14:22:23;6.60;;;3.75;;
35324;SDS011;35135;47.510;19.036;2023-03-01T14:27:20;7.15;;;3.78;;
35324;SDS011;35135;47.510;19.036;2023-03-01T14:29:55;5.28;;;3.75;;
35324;SDS011;35135;47.510;19.036;2023-03-01T14:32:29;4.88;;;3.70;;
35324;SDS011;35135;47.510;19.036;2023-03-01T14:34:57;6.05;;;3.78;;
35324;SDS011;35135;47.510;19.036;2023-03-01T14:37:28;6.22;;;3.80;;
35324;SDS011;35135;47.510;19.036;2023-03-01T14:39:59;5.13;;;3.70;;
35324;SDS011;35135;47.510;19.036;2023-03-01T14:42:28;5.32;;;3.30;;
35324;SDS011;35135;47.510;19.036;2023-03-01T14:44:59;6.80;;;3.50;;
35324;SDS011;35135;47.510;19.036;2023-03-01T14:50:09;3.78;;;3.38;;
35324;SDS011;35135;47.510;19.036;2023-03-01T14:52:58;4.50;;;3.30;;
35324;SDS011;35135;47.510;19.036;2023-03-01T14:57:52;8.02;;;3.67;;
35324;SDS011;35135;47.510;19.036;2023-03-01T15:00:20;3.63;;;3.22;;
35324;SDS011;35135;47.510;19.036;2023-03-01T15:02:52;6.68;;;3.38;;
35324;SDS011;35135;47.510;19.036;2023-03-01T15:05:27;4.22;;;3.35;;
35324;SDS011;35135;47.510;19.036;2023-03-01T15:07:56;5.03;;;3.20;;
35324;SDS011;35135;47.510;19.036;2023-03-01T15:10:25;5.75;;;3.47;;
35324;SDS011;35135;47.510;19.036;2023-03-01T15:12:53;5.88;;;3.30;;
35324;SDS011;35135;47.510;19.036;2023-03-01T15:17:54;6.22;;;3.10;;
35324;SDS011;35135;47.510;19.036;2023-03-01T15:20:22;4.35;;;3.75;;
35324;SDS011;35135;47.510;19.036;2023-03-01T15:25:24;4.45;;;3.33;;
35324;SDS011;35135;47.510;19.036;2023-03-01T15:27:52;5.17;;;3.27;;
35324;SDS011;35135;47.510;19.036;2023-03-01T15:35:45;4.40;;;3.67;;
35324;SDS011;35135;47.510;19.036;2023-03-01T15:38:26;3.90;;;3.50;;
35324;SDS011;35135;47.510;19.036;2023-03-01T15:40:52;6.20;;;3.22;;
35324;SDS011;35135;47.510;19.036;2023-03-01T15:43:41;3.78;;;3.05;;
35324;SDS011;35135;47.510;19.036;2023-03-01T15:46:16;4.57;;;3.47;;
35324;SDS011;35135;47.510;19.036;2023-03-01T15:48:51;5.68;;;3.28;;
35324;SDS011;35135;47.510;19.036;2023-03-01T15:51:21;6.15;;;3.72;;
35324;SDS011;35135;47.510;19.036;2023-03-01T15:53:53;5.25;;;3.17;;
35324;SDS011;35135;47.510;19.036;2023-03-01T15:56:19;4.82;;;3.65;;
35324;SDS011;35135;47.510;19.036;2023-03-01T15:58:44;5.40;;;2.95;;
35324;SDS011;35135;47.510;19.036;2023-03-01T16:01:14;5.18;;;3.42;;
35324;SDS011;35135;47.510;19.036;2023-03-01T16:03:41;8.77;;;3.70;;
35324;SDS011;35135;47.510;19.036;2023-03-01T16:06:11;5.18;;;3.25;;
35324;SDS011;35135;47.510;19.036;2023-03-01T16:08:37;5.00;;;3.15;;
35324;SDS011;35135;47.510;19.036;2023-03-01T16:11:09;5.50;;;3.13;;
35324;SDS011;35135;47.510;19.036;2023-03-01T16:13:39;4.43;;;3.05;;
35324;SDS011;35135;47.510;19.036;2023-03-01T16:16:04;5.10;;;3.17;;
35324;SDS011;35135;47.510;19.036;2023-03-01T16:18:30;5.22;;;3.28;;
35324;SDS011;35135;47.510;19.036;2023-03-01T16:20:56;8.70;;;3.10;;
35324;SDS011;35135;47.510;19.036;2023-03-01T16:23:22;4.88;;;3.25;;
35324;SDS011;35135;47.510;19.036;2023-03-01T16:25:50;6.53;;;3.17;;
35324;SDS011;35135;47.510;19.036;2023-03-01T16:28:15;5.63;;;3.25;;
35324;SDS011;35135;47.510;19.036;2023-03-01T16:30:44;4.82;;;3.35;;
35324;SDS011;35135;47.510;19.036;2023-03-01T16:33:13;4.88;;;2.85;;
35324;SDS011;35135;47.510;19.036;2023-03-01T16:35:39;4.65;;;3.22;;
35324;SDS011;35135;47.510;19.036;2023-03-01T16:38:05;3.75;;;2.80;;
35324;SDS011;35135;47.510;19.036;2023-03-01T16:40:31;4.38;;;3.15;;
35324;SDS011;35135;47.510;19.036;2023-03-01T16:42:57;6.10;;;3.08;;
35324;SDS011;35135;47.510;19.036;2023-03-01T16:45:26;4.13;;;3.08;;
35324;SDS011;35135;47.510;19.036;2023-03-01T16:47:57;4.32;;;2.97;;
35324;SDS011;35135;47.510;19.036;2023-03-01T16:50:23;3.53;;;3.00;;
35324;SDS011;35135;47.510;19.036;2023-03-01T16:52:50;4.53;;;3.35;;
35324;SDS011;35135;47.510;19.036;2023-03-01T16:55:15;4.57;;;3.00;;
35324;SDS011;35135;47.510;19.036;2023-03-01T16:57:41;4.03;;;3.10;;
35324;SDS011;35135;47.510;19.036;2023-03-01T17:00:08;4.30;;;2.78;;
35324;SDS011;35135;47.510;19.036;2023-03-01T17:02:35;5.35;;;3.38;;
35324;SDS011;35135;47.510;19.036;2023-03-01T17:05:02;5.18;;;2.92;;
35324;SDS011;35135;47.510;19.036;2023-03-01T17:07:29;6.40;;;3.35;;
35324;SDS011;35135;47.510;19.036;2023-03-01T17:09:58;4.57;;;3.05;;
35324;SDS011;35135;47.510;19.036;2023-03-01T17:12:24;3.67;;;3.20;;
35324;SDS011;35135;47.510;19.036;2023-03-01T17:14:50;3.42;;;3.00;;
35324;SDS011;35135;47.510;19.036;2023-03-01T17:17:16;7.18;;;3.25;;
35324;SDS011;35135;47.510;19.036;2023-03-01T17:19:41;7.38;;;4.05;;
35324;SDS011;35135;47.510;19.036;2023-03-01T17:22:09;7.85;;;3.90;;
35324;SDS011;35135;47.510;19.036;2023-03-01T17:24:36;11.00;;;4.05;;
35324;SDS011;35135;47.510;19.036;2023-03-01T17:27:03;11.02;;;4.20;;
35324;SDS011;35135;47.510;19.036;2023-03-01T17:29:30;11.20;;;4.03;;